sensor_id;sensor_type;location;lat;lon;timestamp;pressure;altitude;pressure_sealevel;temperature;humidity
60719;BME280;46567;51.660;5.824;2023-10-08T00:04:03;130820.0;;;190.6;91.0
60719;BME280;46567;51.660;5.824;2023-10-08T00:09:03;130830.0;;;190.6;91.0
60719;BME280;46567;51.660;5.824;2023-10-08T00:14:03;130850.0;;;190.6;91.0
60719;BME280;46567;51.660;5.824;2023-10-08T00:19:03;130880.0;;;190.6;91.5
60719;BME280;46567;51.660;5.824;2023-10-08T00:24:03;130890.0;;;190.6;92.0
60719;BME280;46567;51.660;5.824;2023-10-08T00:29:04;130890.0;;;190.6;92.0
60719;BME280;46567;51.660;5.824;2023-10-08T00:34:03;130910.0;;;190.6;92.0
60719;BME280;46567;51.660;5.824;2023-10-08T00:39:03;130920.0;;;190.6;92.0
60719;BME280;46567;51.660;5.824;2023-10-08T00:44:06;130930.0;;;190.6;92.5
60719;BME280;46567;51.660;5.824;2023-10-08T00:49:03;130980.0;;;190.6;92.5
60719;BME280;46567;51.660;5.824;2023-10-08T00:59:03;131000.0;;;190.6;93.5
60719;BME280;46567;51.660;5.824;2023-10-08T01:04:03;131020.0;;;190.6;93.5
60719;BME280;46567;51.660;5.824;2023-10-08T01:09:03;131020.0;;;190.6;93.5
60719;BME280;46567;51.660;5.824;2023-10-08T01:14:03;131020.0;;;190.6;93.5
60719;BME280;46567;51.660;5.824;2023-10-08T01:19:03;131030.0;;;190.6;94.0
60719;BME280;46567;51.660;5.824;2023-10-08T01:24:03;131030.0;;;190.6;94.0
60719;BME280;46567;51.660;5.824;2023-10-08T01:29:03;131030.0;;;190.6;94.5
60719;BME280;46567;51.660;5.824;2023-10-08T01:34:03;131030.0;;;190.6;94.5
60719;BME280;46567;51.660;5.824;2023-10-08T01:39:03;131030.0;;;190.6;94.5
60719;BME280;46567;51.660;5.824;2023-10-08T01:44:03;131040.0;;;190.6;94.5
60719;BME280;46567;51.660;5.824;2023-10-08T01:49:03;131080.0;;;190.6;95.0
60719;BME280;46567;51.660;5.824;2023-10-08T01:54:04;131070.0;;;190.6;95.0
60719;BME280;46567;51.660;5.824;2023-10-08T01:59:03;131080.0;;;190.6;95.0
60719;BME280;46567;51.660;5.824;2023-10-08T02:04:03;131100.0;;;190.6;95.0
60719;BME280;46567;51.660;5.824;2023-10-08T02:09:03;131120.0;;;190.6;95.0
60719;BME280;46567;51.660;5.824;2023-10-08T02:14:03;131110.0;;;190.6;95.0
60719;BME280;46567;51.660;5.824;2023-10-08T02:19:03;131100.0;;;190.6;95.0
60719;BME280;46567;51.660;5.824;2023-10-08T02:24:03;131150.0;;;190.6;95.5
60719;BME280;46567;51.660;5.824;2023-10-08T02:29:03;131150.0;;;190.6;95.5
60719;BME280;46567;51.660;5.824;2023-10-08T02:34:03;131160.0;;;190.6;95.5
60719;BME280;46567;51.660;5.824;2023-10-08T02:39:04;131170.0;;;190.6;96.0
60719;BME280;46567;51.660;5.824;2023-10-08T02:44:03;131200.0;;;190.6;96.0
60719;BME280;46567;51.660;5.824;2023-10-08T02:49:03;131200.0;;;190.6;96.0
60719;BME280;46567;51.660;5.824;2023-10-08T02:54:03;131220.0;;;190.6;96.0
60719;BME280;46567;51.660;5.824;2023-10-08T02:59:03;131240.0;;;190.6;96.5
60719;BME280;46567;51.660;5.824;2023-10-08T03:04:03;131250.0;;;190.6;96.5
60719;BME280;46567;51.660;5.824;2023-10-08T03:09:03;131210.0;;;190.6;97.0
60719;BME280;46567;51.660;5.824;2023-10-08T03:14:03;131220.0;;;190.6;97.0
60719;BME280;46567;51.660;5.824;2023-10-08T03:19:03;131250.0;;;190.6;97.0
60719;BME280;46567;51.660;5.824;2023-10-08T03:24:03;131230.0;;;190.6;97.0
60719;BME280;46567;51.660;5.824;2023-10-08T03:29:05;131280.0;;;190.6;97.5
60719;BME280;46567;51.660;5.824;2023-10-08T03:34:03;131270.0;;;190.6;97.5
60719;BME280;46567;51.660;5.824;2023-10-08T03:39:03;131270.0;;;190.6;97.5
60719;BME280;46567;51.660;5.824;2023-10-08T03:44:03;131310.0;;;190.6;97.5
60719;BME280;46567;51.660;5.824;2023-10-08T03:49:03;131330.0;;;190.6;98.0
60719;BME280;46567;51.660;5.824;2023-10-08T03:54:03;131340.0;;;190.6;98.0
60719;BME280;46567;51.660;5.824;2023-10-08T03:59:03;131340.0;;;190.6;98.0
60719;BME280;46567;51.660;5.824;2023-10-08T04:04:03;131320.0;;;190.6;98.5
60719;BME280;46567;51.660;5.824;2023-10-08T04:09:04;131320.0;;;190.6;98.5
60719;BME280;46567;51.660;5.824;2023-10-08T04:14:03;131330.0;;;190.6;99.0
60719;BME280;46567;51.660;5.824;2023-10-08T04:24:03;131390.0;;;190.6;99.0
60719;BME280;46567;51.660;5.824;2023-10-08T04:29:03;131410.0;;;190.6;99.5
60719;BME280;46567;51.660;5.824;2023-10-08T04:34:04;131400.0;;;190.6;99.5
60719;BME280;46567;51.660;5.824;2023-10-08T04:39:03;131410.0;;;190.6;99.5
60719;BME280;46567;51.660;5.824;2023-10-08T04:44:03;131440.0;;;190.6;100.0
60719;BME280;46567;51.660;5.824;2023-10-08T04:49:03;131460.0;;;190.6;100.0
60719;BME280;46567;51.660;5.824;2023-10-08T04:54:03;131460.0;;;190.6;100.0
60719;BME280;46567;51.660;5.824;2023-10-08T04:59:03;131450.0;;;190.6;100.0
60719;BME280;46567;51.660;5.824;2023-10-08T05:04:03;131460.0;;;190.6;100.0
60719;BME280;46567;51.660;5.824;2023-10-08T05:09:05;131430.0;;;190.6;100.0
60719;BME280;46567;51.660;5.824;2023-10-08T05:14:03;131440.0;;;190.6;100.0
60719;BME280;46567;51.660;5.824;2023-10-08T05:19:03;131440.0;;;190.6;100.0
60719;BME280;46567;51.660;5.824;2023-10-08T05:24:03;131430.0;;;190.6;100.0
60719;BME280;46567;51.660;5.824;2023-10-08T05:29:03;131440.0;;;190.6;100.0
60719;BME280;46567;51.660;5.824;2023-10-08T05:34:03;131450.0;;;190.6;100.0
60719;BME280;46567;51.660;5.824;2023-10-08T05:39:03;131450.0;;;190.6;100.0
60719;BME280;46567;51.660;5.824;2023-10-08T05:44:03;131480.0;;;190.6;100.0
60719;BME280;46567;51.660;5.824;2023-10-08T05:49:03;131510.0;;;190.6;100.0
60719;BME280;46567;51.660;5.824;2023-10-08T05:59:03;131490.0;;;190.6;100.0
60719;BME280;46567;51.660;5.824;2023-10-08T06:04:03;131480.0;;;190.6;100.0
60719;BME280;46567;51.660;5.824;2023-10-08T06:09:03;131490.0;;;190.6;100.0
60719;BME280;46567;51.660;5.824;2023-10-08T06:14:03;131480.0;;;190.6;100.0
60719;BME280;46567;51.660;5.824;2023-10-08T06:19:03;131510.0;;;190.6;100.0
60719;BME280;46567;51.660;5.824;2023-10-08T06:24:03;131500.0;;;190.6;100.0
60719;BME280;46567;51.660;5.824;2023-10-08T06:29:03;131510.0;;;190.6;100.0
60719;BME280;46567;51.660;5.824;2023-10-08T06:34:03;131530.0;;;190.6;100.0
60719;BME280;46567;51.660;5.824;2023-10-08T06:39:03;131510.0;;;190.6;100.0
60719;BME280;46567;51.660;5.824;2023-10-08T06:44:03;131500.0;;;190.6;100.0
60719;BME280;46567;51.660;5.824;2023-10-08T06:49:03;131520.0;;;190.6;100.0
60719;BME280;46567;51.660;5.824;2023-10-08T06:54:03;131560.0;;;190.6;100.0
60719;BME280;46567;51.660;5.824;2023-10-08T06:59:03;131600.0;;;190.6;100.0
60719;BME280;46567;51.660;5.824;2023-10-08T07:04:03;131620.0;;;190.6;100.0
60719;BME280;46567;51.660;5.824;2023-10-08T07:09:03;131630.0;;;190.6;100.0
60719;BME280;46567;51.660;5.824;2023-10-08T07:14:04;131600.0;;;190.6;100.0
60719;BME280;46567;51.660;5.824;2023-10-08T07:24:03;131600.0;;;190.6;100.0
60719;BME280;46567;51.660;5.824;2023-10-08T07:29:04;131640.0;;;190.6;100.0
60719;BME280;46567;51.660;5.824;2023-10-08T07:34:03;131680.0;;;190.6;100.0
60719;BME280;46567;51.660;5.824;2023-10-08T07:39:03;131690.0;;;190.6;100.0
60719;BME280;46567;51.660;5.824;2023-10-08T07:44:03;131680.0;;;190.6;100.0
60719;BME280;46567;51.660;5.824;2023-10-08T07:49:03;131690.0;;;190.6;100.0
60719;BME280;46567;51.660;5.824;2023-10-08T07:54:03;131680.0;;;190.6;100.0
60719;BME280;46567;51.660;5.824;2023-10-08T07:59:03;131680.0;;;190.6;100.0
60719;BME280;46567;51.660;5.824;2023-10-08T08:04:03;131690.0;;;190.6;100.0
60719;BME280;46567;51.660;5.824;2023-10-08T08:09:03;131680.0;;;190.6;100.0
60719;BME280;46567;51.660;5.824;2023-10-08T08:14:03;131700.0;;;190.6;100.0
60719;BME280;46567;51.660;5.824;2023-10-08T08:19:03;131680.0;;;190.6;100.0
60719;BME280;46567;51.660;5.824;2023-10-08T08:24:03;131700.0;;;190.6;100.0
60719;BME280;46567;51.660;5.824;2023-10-08T08:29:03;131720.0;;;190.6;100.0
60719;BME280;46567;51.660;5.824;2023-10-08T08:34:06;131760.0;;;190.6;100.0
60719;BME280;46567;51.660;5.824;2023-10-08T08:39:03;131780.0;;;190.6;100.0
60719;BME280;46567;51.660;5.824;2023-10-08T08:44:03;131760.0;;;190.6;100.0
60719;BME280;46567;51.660;5.824;2023-10-08T08:49:06;131780.0;;;190.6;100.0
60719;BME280;46567;51.660;5.824;2023-10-08T08:54:04;131770.0;;;190.6;100.0
60719;BME280;46567;51.660;5.824;2023-10-08T08:59:04;131760.0;;;190.6;100.0
60719;BME280;46567;51.660;5.824;2023-10-08T09:04:03;131780.0;;;190.6;100.0
60719;BME280;46567;51.660;5.824;2023-10-08T09:09:04;131780.0;;;190.6;100.0
60719;BME280;46567;51.660;5.824;2023-10-08T09:14:03;131750.0;;;190.6;100.0
60719;BME280;46567;51.660;5.824;2023-10-08T09:19:03;131760.0;;;190.6;100.0
60719;BME280;46567;51.660;5.824;2023-10-08T09:24:03;131770.0;;;190.6;100.0
60719;BME280;46567;51.660;5.824;2023-10-08T09:29:04;131800.0;;;190.6;100.0
60719;BME280;46567;51.660;5.824;2023-10-08T09:34:03;131800.0;;;190.6;100.0
60719;BME280;46567;51.660;5.824;2023-10-08T09:39:03;131790.0;;;190.6;100.0
60719;BME280;46567;51.660;5.824;2023-10-08T09:44:03;131770.0;;;190.6;100.0
60719;BME280;46567;51.660;5.824;2023-10-08T09:49:04;131760.0;;;190.6;100.0
60719;BME280;46567;51.660;5.824;2023-10-08T09:54:31;131750.0;;;190.6;100.0
60719;BME280;46567;51.660;5.824;2023-10-08T09:59:03;131720.0;;;190.6;100.0
60719;BME280;46567;51.660;5.824;2023-10-08T10:04:05;131670.0;;;190.6;100.0
60719;BME280;46567;51.660;5.824;2023-10-08T10:09:05;131610.0;;;190.6;100.0
60719;BME280;46567;51.660;5.824;2023-10-08T10:14:03;131570.0;;;190.6;100.0
60719;BME280;46567;51.660;5.824;2023-10-08T10:19:03;131520.0;;;190.6;100.0
60719;BME280;46567;51.660;5.824;2023-10-08T10:24:03;131480.0;;;190.6;100.0
60719;BME280;46567;51.660;5.824;2023-10-08T10:29:18;131490.0;;;190.6;100.0
60719;BME280;46567;51.660;5.824;2023-10-08T10:34:04;131470.0;;;190.6;100.0
60719;BME280;46567;51.660;5.824;2023-10-08T10:39:04;131460.0;;;190.6;100.0
60719;BME280;46567;51.660;5.824;2023-10-08T10:44:03;131460.0;;;190.6;100.0
60719;BME280;46567;51.660;5.824;2023-10-08T10:49:03;131460.0;;;190.6;100.0
60719;BME280;46567;51.660;5.824;2023-10-08T10:54:03;131430.0;;;190.6;100.0
60719;BME280;46567;51.660;5.824;2023-10-08T10:59:03;131430.0;;;190.6;100.0
60719;BME280;46567;51.660;5.824;2023-10-08T11:04:03;131450.0;;;190.6;100.0
60719;BME280;46567;51.660;5.824;2023-10-08T11:09:03;131430.0;;;190.6;100.0
60719;BME280;46567;51.660;5.824;2023-10-08T11:14:03;131400.0;;;190.6;100.0
60719;BME280;46567;51.660;5.824;2023-10-08T11:19:08;131380.0;;;190.6;100.0
60719;BME280;46567;51.660;5.824;2023-10-08T11:24:03;131320.0;;;190.6;100.0
60719;BME280;46567;51.660;5.824;2023-10-08T11:29:05;131260.0;;;190.6;100.0
60719;BME280;46567;51.660;5.824;2023-10-08T11:34:03;131190.0;;;190.6;100.0
60719;BME280;46567;51.660;5.824;2023-10-08T11:39:12;131170.0;;;190.6;100.0
60719;BME280;46567;51.660;5.824;2023-10-08T11:44:03;131190.0;;;190.6;100.0
60719;BME280;46567;51.660;5.824;2023-10-08T11:49:04;131230.0;;;190.6;100.0
60719;BME280;46567;51.660;5.824;2023-10-08T11:54:03;131260.0;;;190.6;100.0
60719;BME280;46567;51.660;5.824;2023-10-08T11:59:04;131250.0;;;190.6;100.0
60719;BME280;46567;51.660;5.824;2023-10-08T12:04:03;131230.0;;;190.6;100.0
60719;BME280;46567;51.660;5.824;2023-10-08T12:09:03;131230.0;;;190.6;100.0
60719;BME280;46567;51.660;5.824;2023-10-08T12:14:03;131220.0;;;190.6;100.0
60719;BME280;46567;51.660;5.824;2023-10-08T12:19:03;131200.0;;;190.6;100.0
60719;BME280;46567;51.660;5.824;2023-10-08T12:24:03;131180.0;;;190.6;100.0
60719;BME280;46567;51.660;5.824;2023-10-08T12:29:03;131140.0;;;190.6;100.0
60719;BME280;46567;51.660;5.824;2023-10-08T12:34:03;131100.0;;;190.6;100.0
60719;BME280;46567;51.660;5.824;2023-10-08T12:39:03;131070.0;;;190.6;100.0
60719;BME280;46567;51.660;5.824;2023-10-08T12:44:04;131080.0;;;190.6;98.5
60719;BME280;46567;51.660;5.824;2023-10-08T12:49:03;131090.0;;;190.6;99.5
60719;BME280;46567;51.660;5.824;2023-10-08T12:54:03;131090.0;;;190.6;100.0
60719;BME280;46567;51.660;5.824;2023-10-08T12:59:04;131070.0;;;190.6;100.0
60719;BME280;46567;51.660;5.824;2023-10-08T13:04:03;131080.0;;;190.6;100.0
60719;BME280;46567;51.660;5.824;2023-10-08T13:09:04;131070.0;;;190.6;100.0
60719;BME280;46567;51.660;5.824;2023-10-08T13:14:03;131050.0;;;190.6;100.0
60719;BME280;46567;51.660;5.824;2023-10-08T13:19:04;131020.0;;;190.6;99.0
60719;BME280;46567;51.660;5.824;2023-10-08T13:24:03;131000.0;;;190.6;99.0
60719;BME280;46567;51.660;5.824;2023-10-08T13:29:04;130980.0;;;190.6;99.5
60719;BME280;46567;51.660;5.824;2023-10-08T13:34:03;130970.0;;;190.6;99.0
60719;BME280;46567;51.660;5.824;2023-10-08T13:39:03;130940.0;;;190.6;99.5
60719;BME280;46567;51.660;5.824;2023-10-08T13:44:03;130920.0;;;190.6;99.5
60719;BME280;46567;51.660;5.824;2023-10-08T13:49:03;130920.0;;;190.6;99.0
60719;BME280;46567;51.660;5.824;2023-10-08T13:54:03;130920.0;;;190.6;99.5
60719;BME280;46567;51.660;5.824;2023-10-08T13:59:04;130920.0;;;190.6;99.5
60719;BME280;46567;51.660;5.824;2023-10-08T14:04:04;130870.0;;;190.6;99.5
60719;BME280;46567;51.660;5.824;2023-10-08T14:09:04;130860.0;;;190.6;99.0
60719;BME280;46567;51.660;5.824;2023-10-08T14:19:03;130850.0;;;190.6;99.0
60719;BME280;46567;51.660;5.824;2023-10-08T14:24:03;130870.0;;;190.6;99.0
60719;BME280;46567;51.660;5.824;2023-10-08T14:29:03;130890.0;;;190.6;99.0
60719;BME280;46567;51.660;5.824;2023-10-08T14:34:04;130910.0;;;190.6;99.5
60719;BME280;46567;51.660;5.824;2023-10-08T14:39:03;130920.0;;;190.6;99.5
60719;BME280;46567;51.660;5.824;2023-10-08T14:44:03;130930.0;;;190.6;100.0
60719;BME280;46567;51.660;5.824;2023-10-08T14:49:03;130910.0;;;190.6;100.0
60719;BME280;46567;51.660;5.824;2023-10-08T14:54:03;130910.0;;;190.6;100.0
60719;BME280;46567;51.660;5.824;2023-10-08T14:59:03;130940.0;;;190.6;100.0
60719;BME280;46567;51.660;5.824;2023-10-08T15:04:04;130920.0;;;190.6;100.0
60719;BME280;46567;51.660;5.824;2023-10-08T15:09:04;130880.0;;;190.6;100.0
60719;BME280;46567;51.660;5.824;2023-10-08T15:14:03;130860.0;;;190.6;100.0
60719;BME280;46567;51.660;5.824;2023-10-08T15:19:03;130830.0;;;190.6;100.0
60719;BME280;46567;51.660;5.824;2023-10-08T15:24:03;130830.0;;;190.6;100.0
60719;BME280;46567;51.660;5.824;2023-10-08T15:29:03;130850.0;;;190.6;100.0
60719;BME280;46567;51.660;5.824;2023-10-08T15:34:03;130860.0;;;190.6;100.0
60719;BME280;46567;51.660;5.824;2023-10-08T15:39:03;130900.0;;;190.6;100.0
60719;BME280;46567;51.660;5.824;2023-10-08T15:44:04;130940.0;;;190.6;100.0
60719;BME280;46567;51.660;5.824;2023-10-08T15:49:03;130990.0;;;190.6;100.0
60719;BME280;46567;51.660;5.824;2023-10-08T15:54:04;130990.0;;;190.6;100.0
60719;BME280;46567;51.660;5.824;2023-10-08T15:59:03;131000.0;;;190.6;100.0
60719;BME280;46567;51.660;5.824;2023-10-08T16:04:03;131040.0;;;190.6;100.0
60719;BME280;46567;51.660;5.824;2023-10-08T16:09:03;131070.0;;;190.6;100.0
60719;BME280;46567;51.660;5.824;2023-10-08T16:14:03;131120.0;;;190.6;100.0
60719;BME280;46567;51.660;5.824;2023-10-08T16:24:03;131140.0;;;190.6;100.0
60719;BME280;46567;51.660;5.824;2023-10-08T16:29:03;131150.0;;;190.6;100.0
60719;BME280;46567;51.660;5.824;2023-10-08T16:34:03;131160.0;;;190.6;100.0
60719;BME280;46567;51.660;5.824;2023-10-08T16:39:03;131190.0;;;190.6;100.0
60719;BME280;46567;51.660;5.824;2023-10-08T16:44:03;131210.0;;;190.6;100.0
60719;BME280;46567;51.660;5.824;2023-10-08T16:49:03;131220.0;;;190.6;100.0
60719;BME280;46567;51.660;5.824;2023-10-08T16:54:04;131230.0;;;190.6;100.0
60719;BME280;46567;51.660;5.824;2023-10-08T16:59:03;131240.0;;;190.6;100.0
60719;BME280;46567;51.660;5.824;2023-10-08T17:04:03;131250.0;;;190.6;100.0
60719;BME280;46567;51.660;5.824;2023-10-08T17:09:03;131250.0;;;190.6;100.0
60719;BME280;46567;51.660;5.824;2023-10-08T17:14:03;131250.0;;;190.6;100.0
60719;BME280;46567;51.660;5.824;2023-10-08T17:19:03;131270.0;;;190.6;100.0
60719;BME280;46567;51.660;5.824;2023-10-08T17:24:04;131270.0;;;190.6;100.0
60719;BME280;46567;51.660;5.824;2023-10-08T17:29:05;131290.0;;;190.6;100.0
60719;BME280;46567;51.660;5.824;2023-10-08T17:34:03;131300.0;;;190.6;100.0
60719;BME280;46567;51.660;5.824;2023-10-08T17:39:03;131290.0;;;190.6;100.0
60719;BME280;46567;51.660;5.824;2023-10-08T17:44:04;131310.0;;;190.6;100.0
60719;BME280;46567;51.660;5.824;2023-10-08T17:49:03;131330.0;;;190.6;100.0
60719;BME280;46567;51.660;5.824;2023-10-08T17:54:03;131340.0;;;190.6;100.0
60719;BME280;46567;51.660;5.824;2023-10-08T17:59:04;131350.0;;;190.6;100.0
60719;BME280;46567;51.660;5.824;2023-10-08T18:04:03;131350.0;;;190.6;100.0
60719;BME280;46567;51.660;5.824;2023-10-08T18:09:03;131350.0;;;190.6;100.0
60719;BME280;46567;51.660;5.824;2023-10-08T18:14:03;131370.0;;;190.6;100.0
60719;BME280;46567;51.660;5.824;2023-10-08T18:19:03;131390.0;;;190.6;100.0
60719;BME280;46567;51.660;5.824;2023-10-08T18:24:04;131390.0;;;190.6;100.0
60719;BME280;46567;51.660;5.824;2023-10-08T18:29:03;131390.0;;;190.6;100.0
60719;BME280;46567;51.660;5.824;2023-10-08T18:34:03;131400.0;;;190.6;100.0
60719;BME280;46567;51.660;5.824;2023-10-08T18:39:04;131390.0;;;190.6;100.0
60719;BME280;46567;51.660;5.824;2023-10-08T18:44:03;131400.0;;;190.6;100.0
60719;BME280;46567;51.660;5.824;2023-10-08T18:49:04;131390.0;;;190.6;100.0
60719;BME280;46567;51.660;5.824;2023-10-08T18:54:04;131400.0;;;190.6;100.0
60719;BME280;46567;51.660;5.824;2023-10-08T18:59:03;131390.0;;;190.6;100.0
60719;BME280;46567;51.660;5.824;2023-10-08T19:04:03;131400.0;;;190.6;100.0
60719;BME280;46567;51.660;5.824;2023-10-08T19:09:03;131410.0;;;190.6;100.0
60719;BME280;46567;51.660;5.824;2023-10-08T19:14:04;131420.0;;;190.6;100.0
60719;BME280;46567;51.660;5.824;2023-10-08T19:19:03;131420.0;;;190.6;100.0
60719;BME280;46567;51.660;5.824;2023-10-08T19:24:04;131440.0;;;190.6;100.0
60719;BME280;46567;51.660;5.824;2023-10-08T19:29:04;131440.0;;;190.6;100.0
60719;BME280;46567;51.660;5.824;2023-10-08T19:34:03;131440.0;;;190.6;100.0
60719;BME280;46567;51.660;5.824;2023-10-08T19:39:03;131450.0;;;190.6;100.0
60719;BME280;46567;51.660;5.824;2023-10-08T19:44:04;131460.0;;;190.6;100.0
60719;BME280;46567;51.660;5.824;2023-10-08T19:49:04;131500.0;;;190.6;100.0
60719;BME280;46567;51.660;5.824;2023-10-08T19:54:03;131510.0;;;190.6;100.0
60719;BME280;46567;51.660;5.824;2023-10-08T19:59:03;131510.0;;;190.6;100.0
60719;BME280;46567;51.660;5.824;2023-10-08T20:04:04;131500.0;;;190.6;100.0
60719;BME280;46567;51.660;5.824;2023-10-08T20:09:04;131500.0;;;190.6;100.0
60719;BME280;46567;51.660;5.824;2023-10-08T20:14:03;131490.0;;;190.6;100.0
60719;BME280;46567;51.660;5.824;2023-10-08T20:19:03;131500.0;;;190.6;100.0
60719;BME280;46567;51.660;5.824;2023-10-08T20:24:04;131510.0;;;190.6;100.0
60719;BME280;46567;51.660;5.824;2023-10-08T20:29:03;131530.0;;;190.6;100.0
60719;BME280;46567;51.660;5.824;2023-10-08T20:34:03;131510.0;;;190.6;100.0
60719;BME280;46567;51.660;5.824;2023-10-08T20:39:03;131520.0;;;190.6;100.0
60719;BME280;46567;51.660;5.824;2023-10-08T20:44:03;131530.0;;;190.6;100.0
60719;BME280;46567;51.660;5.824;2023-10-08T20:49:04;131520.0;;;190.6;100.0
60719;BME280;46567;51.660;5.824;2023-10-08T20:54:04;131550.0;;;190.6;100.0
60719;BME280;46567;51.660;5.824;2023-10-08T20:59:04;131540.0;;;190.6;100.0
60719;BME280;46567;51.660;5.824;2023-10-08T21:04:03;131550.0;;;190.6;100.0
60719;BME280;46567;51.660;5.824;2023-10-08T21:09:03;131540.0;;;190.6;100.0
60719;BME280;46567;51.660;5.824;2023-10-08T21:14:03;131550.0;;;190.6;100.0
60719;BME280;46567;51.660;5.824;2023-10-08T21:19:03;131570.0;;;190.6;100.0
60719;BME280;46567;51.660;5.824;2023-10-08T21:24:03;131590.0;;;190.6;100.0
60719;BME280;46567;51.660;5.824;2023-10-08T21:29:03;131610.0;;;190.6;100.0
60719;BME280;46567;51.660;5.824;2023-10-08T21:34:03;131620.0;;;190.6;100.0
60719;BME280;46567;51.660;5.824;2023-10-08T21:39:03;131630.0;;;190.6;100.0
60719;BME280;46567;51.660;5.824;2023-10-08T21:44:03;131630.0;;;190.6;100.0
60719;BME280;46567;51.660;5.824;2023-10-08T21:49:03;131660.0;;;190.6;100.0
60719;BME280;46567;51.660;5.824;2023-10-08T21:54:03;131670.0;;;190.6;100.0
60719;BME280;46567;51.660;5.824;2023-10-08T21:59:03;131660.0;;;190.6;100.0
60719;BME280;46567;51.660;5.824;2023-10-08T22:04:03;131650.0;;;190.6;100.0
60719;BME280;46567;51.660;5.824;2023-10-08T22:09:04;131630.0;;;190.6;100.0
60719;BME280;46567;51.660;5.824;2023-10-08T22:14:04;131640.0;;;190.6;100.0
60719;BME280;46567;51.660;5.824;2023-10-08T22:19:03;131640.0;;;190.6;100.0
60719;BME280;46567;51.660;5.824;2023-10-08T22:24:04;131640.0;;;190.6;100.0
60719;BME280;46567;51.660;5.824;2023-10-08T22:29:03;131640.0;;;190.6;100.0
60719;BME280;46567;51.660;5.824;2023-10-08T22:34:04;131630.0;;;190.6;100.0
60719;BME280;46567;51.660;5.824;2023-10-08T22:39:03;131610.0;;;190.6;100.0
60719;BME280;46567;51.660;5.824;2023-10-08T22:44:03;131570.0;;;190.6;100.0
60719;BME280;46567;51.660;5.824;2023-10-08T22:49:03;131540.0;;;190.6;100.0
60719;BME280;46567;51.660;5.824;2023-10-08T22:54:04;131510.0;;;190.6;100.0
60719;BME280;46567;51.660;5.824;2023-10-08T22:59:04;131460.0;;;190.6;100.0
60719;BME280;46567;51.660;5.824;2023-10-08T23:04:04;131420.0;;;190.6;100.0
60719;BME280;46567;51.660;5.824;2023-10-08T23:09:04;131400.0;;;190.6;100.0
60719;BME280;46567;51.660;5.824;2023-10-08T23:14:03;131360.0;;;190.6;100.0
60719;BME280;46567;51.660;5.824;2023-10-08T23:19:04;131320.0;;;190.6;100.0
60719;BME280;46567;51.660;5.824;2023-10-08T23:24:04;131290.0;;;190.6;100.0
60719;BME280;46567;51.660;5.824;2023-10-08T23:29:03;131280.0;;;190.6;100.0
60719;BME280;46567;51.660;5.824;2023-10-08T23:34:03;131270.0;;;190.6;100.0
60719;BME280;46567;51.660;5.824;2023-10-08T23:39:04;131250.0;;;190.6;100.0
60719;BME280;46567;51.660;5.824;2023-10-08T23:44:03;131240.0;;;190.6;100.0
60719;BME280;46567;51.660;5.824;2023-10-08T23:49:05;131210.0;;;190.6;100.0
60719;BME280;46567;51.660;5.824;2023-10-08T23:54:04;131200.0;;;190.6;100.0
60719;BME280;46567;51.660;5.824;2023-10-08T23:59:03;131170.0;;;190.6;100.0
